Terminal Aerodrome Forecast
Issued by NWS Paducah, KY

Home | Current Version | Previous Version | Graphics & Text | Print | Product List | Glossary On
Versions: 1 2 3 4 5 6 7 8 9 10 11 12 13 14 15 16
000
FTUS43 KPAH 280212 AAA
TAFEVV
TAF AMD
KEVV 280212Z 2802/2824 25012G20KT P6SM BKN035
     FM280400 VRB04KT P6SM SCT045
     FM281300 27010KT P6SM BKN040=

USA.gov is the U.S. government's official web portal to all federal, state and local government web resources and services.